Current | Forecast
Updated: 3:00 PM CEST on August 16, 2017
Observed at Madrid / Torrejon, Spain
Temperature 34°C
Humidity 11%
Dew Point 0°C
Wind WSW at 17 km/h
Pressure 1020 hPa (Steady)
Conditions Clear
Visibility -
UV N/A
Clouds
Yesterday's Maximum 35°C
Yesterday's Minimum 20°C approx.
Yesterday's Cooling Degree Days 17 approx.
Sunrise7:24 AM CEST
Sunset9:09 PM CEST
Moon Rise1:57 AM CEST
Moon Set4:29 PM CEST
Moon PhaseMoon Phase
Waning Crescent
Raw METARMETAR LETO 161300Z 24009KT 200V280 CAVOK 34/00 Q1020 NOSIG


Monday
. High: 73° F.
Tuesday
. High: 78° F.
Wednesday
. High: 66° F.
Thursday
. High: 68° F.
Friday
. High: 78° F.
Saturday
. High: 71° F.
Sunday
. High: 77° F.
Monday
. High: 82° F.

Units: English | Metric

Find the Weather for any City, State or Zipcode, or Country:

U.S. State List | Severe Weather | Tropical Storms | Ski Conditions
United States | Canada | Central America | South America | Asia | Europe | Australia | Africa | Islands

Weather Underground

© Copyright 2017
The Weather Company, LLC